sensor_id;sensor_type;location;lat;lon;timestamp;pressure;altitude;pressure_sealevel;temperature;humidity
69306;BME280;56427;51.580;4.656;2022-09-09T00:00:55;100738.84;;;13.15;100.00
69306;BME280;56427;51.580;4.656;2022-09-09T00:03:37;100740.09;;;13.11;100.00
69306;BME280;56427;51.580;4.656;2022-09-09T00:09:12;100737.78;;;13.07;100.00
69306;BME280;56427;51.580;4.656;2022-09-09T00:11:43;100733.09;;;13.11;100.00
69306;BME280;56427;51.580;4.656;2022-09-09T00:14:23;100730.34;;;13.13;100.00
69306;BME280;56427;51.580;4.656;2022-09-09T00:16:56;100721.84;;;13.11;100.00
69306;BME280;56427;51.580;4.656;2022-09-09T00:19:41;100719.00;;;13.04;100.00
69306;BME280;56427;51.580;4.656;2022-09-09T00:22:19;100717.16;;;12.96;100.00
69306;BME280;56427;51.580;4.656;2022-09-09T00:24:49;100717.25;;;13.04;100.00
69306;BME280;56427;51.580;4.656;2022-09-09T00:27:25;100715.31;;;13.06;100.00
69306;BME280;56427;51.580;4.656;2022-09-09T00:30:00;100709.81;;;13.10;100.00
69306;BME280;56427;51.580;4.656;2022-09-09T00:32:30;100698.72;;;13.07;100.00
69306;BME280;56427;51.580;4.656;2022-09-09T00:35:02;100707.41;;;13.16;100.00
69306;BME280;56427;51.580;4.656;2022-09-09T00:37:29;100703.84;;;13.17;100.00
69306;BME280;56427;51.580;4.656;2022-09-09T00:39:59;100700.41;;;13.17;100.00
69306;BME280;56427;51.580;4.656;2022-09-09T00:42:46;100698.38;;;13.11;100.00
69306;BME280;56427;51.580;4.656;2022-09-09T00:47:45;100703.47;;;13.12;100.00
69306;BME280;56427;51.580;4.656;2022-09-09T00:55:54;100695.78;;;13.11;100.00
69306;BME280;56427;51.580;4.656;2022-09-09T00:58:25;100689.09;;;13.08;100.00
69306;BME280;56427;51.580;4.656;2022-09-09T01:00:57;100692.53;;;13.08;100.00
69306;BME280;56427;51.580;4.656;2022-09-09T01:03:35;100692.75;;;13.15;100.00
69306;BME280;56427;51.580;4.656;2022-09-09T01:06:21;100692.09;;;13.13;100.00
69306;BME280;56427;51.580;4.656;2022-09-09T01:14:40;100681.81;;;13.12;100.00
69306;BME280;56427;51.580;4.656;2022-09-09T01:19:48;100683.88;;;13.08;100.00
69306;BME280;56427;51.580;4.656;2022-09-09T01:22:26;100676.06;;;13.08;100.00
69306;BME280;56427;51.580;4.656;2022-09-09T01:28:03;100673.63;;;13.06;100.00
69306;BME280;56427;51.580;4.656;2022-09-09T01:30:33;100678.00;;;13.06;100.00
69306;BME280;56427;51.580;4.656;2022-09-09T01:32:59;100668.25;;;13.08;100.00
69306;BME280;56427;51.580;4.656;2022-09-09T01:35:33;100672.81;;;13.06;100.00
69306;BME280;56427;51.580;4.656;2022-09-09T01:38:02;100675.56;;;13.04;100.00
69306;BME280;56427;51.580;4.656;2022-09-09T01:40:27;100674.13;;;13.10;100.00
69306;BME280;56427;51.580;4.656;2022-09-09T01:42:53;100680.63;;;13.06;100.00
69306;BME280;56427;51.580;4.656;2022-09-09T01:45:21;100660.75;;;13.05;100.00
69306;BME280;56427;51.580;4.656;2022-09-09T01:47:47;100667.88;;;13.03;100.00
69306;BME280;56427;51.580;4.656;2022-09-09T01:50:15;100659.22;;;13.02;100.00
69306;BME280;56427;51.580;4.656;2022-09-09T01:52:42;100659.09;;;13.04;100.00
69306;BME280;56427;51.580;4.656;2022-09-09T01:55:09;100660.88;;;13.03;100.00
69306;BME280;56427;51.580;4.656;2022-09-09T02:00:20;100651.81;;;13.07;100.00
69306;BME280;56427;51.580;4.656;2022-09-09T02:08:06;100652.25;;;13.03;100.00
69306;BME280;56427;51.580;4.656;2022-09-09T02:13:12;100645.69;;;12.99;100.00
69306;BME280;56427;51.580;4.656;2022-09-09T02:18:28;100648.88;;;12.93;100.00
69306;BME280;56427;51.580;4.656;2022-09-09T02:20:56;100647.13;;;12.93;100.00
69306;BME280;56427;51.580;4.656;2022-09-09T02:23:23;100633.56;;;12.89;100.00
69306;BME280;56427;51.580;4.656;2022-09-09T02:25:50;100642.34;;;12.88;100.00
69306;BME280;56427;51.580;4.656;2022-09-09T02:28:17;100632.59;;;12.91;100.00
69306;BME280;56427;51.580;4.656;2022-09-09T02:30:48;100634.53;;;12.88;100.00
69306;BME280;56427;51.580;4.656;2022-09-09T02:33:23;100635.84;;;12.93;100.00
69306;BME280;56427;51.580;4.656;2022-09-09T02:35:51;100628.03;;;12.93;100.00
69306;BME280;56427;51.580;4.656;2022-09-09T02:38:17;100626.19;;;12.85;100.00
69306;BME280;56427;51.580;4.656;2022-09-09T02:40:44;100635.34;;;12.89;100.00
69306;BME280;56427;51.580;4.656;2022-09-09T02:43:10;100626.72;;;12.88;100.00
69306;BME280;56427;51.580;4.656;2022-09-09T02:45:49;100641.38;;;12.89;100.00
69306;BME280;56427;51.580;4.656;2022-09-09T02:48:36;100637.78;;;12.91;100.00
69306;BME280;56427;51.580;4.656;2022-09-09T02:51:15;100633.44;;;12.91;100.00
69306;BME280;56427;51.580;4.656;2022-09-09T02:53:52;100631.91;;;12.88;100.00
69306;BME280;56427;51.580;4.656;2022-09-09T02:56:21;100634.53;;;12.88;100.00
69306;BME280;56427;51.580;4.656;2022-09-09T02:58:50;100630.28;;;12.87;100.00
69306;BME280;56427;51.580;4.656;2022-09-09T03:01:17;100626.72;;;12.88;100.00
69306;BME280;56427;51.580;4.656;2022-09-09T03:03:42;100629.47;;;12.87;100.00
69306;BME280;56427;51.580;4.656;2022-09-09T03:06:09;100627.28;;;12.82;100.00
69306;BME280;56427;51.580;4.656;2022-09-09T03:08:37;100628.13;;;12.83;100.00
69306;BME280;56427;51.580;4.656;2022-09-09T03:11:02;100629.59;;;12.85;100.00
69306;BME280;56427;51.580;4.656;2022-09-09T03:13:27;100617.72;;;12.83;100.00
69306;BME280;56427;51.580;4.656;2022-09-09T03:15:53;100623.06;;;12.81;100.00
69306;BME280;56427;51.580;4.656;2022-09-09T03:18:18;100614.56;;;12.79;100.00
69306;BME280;56427;51.580;4.656;2022-09-09T03:20:43;100620.91;;;12.77;100.00
69306;BME280;56427;51.580;4.656;2022-09-09T03:23:08;100621.19;;;12.74;100.00
69306;BME280;56427;51.580;4.656;2022-09-09T03:25:34;100632.56;;;12.73;100.00
69306;BME280;56427;51.580;4.656;2022-09-09T03:28:01;100625.03;;;12.69;100.00
69306;BME280;56427;51.580;4.656;2022-09-09T03:30:27;100626.03;;;12.68;100.00
69306;BME280;56427;51.580;4.656;2022-09-09T03:32:53;100615.97;;;12.74;100.00
69306;BME280;56427;51.580;4.656;2022-09-09T03:35:19;100619.31;;;12.66;100.00
69306;BME280;56427;51.580;4.656;2022-09-09T03:37:45;100622.06;;;12.64;100.00
69306;BME280;56427;51.580;4.656;2022-09-09T03:40:10;100618.50;;;12.65;100.00
69306;BME280;56427;51.580;4.656;2022-09-09T03:42:37;100618.34;;;12.67;100.00
69306;BME280;56427;51.580;4.656;2022-09-09T03:45:07;100616.28;;;12.70;100.00
69306;BME280;56427;51.580;4.656;2022-09-09T03:47:34;100617.09;;;12.71;100.00
69306;BME280;56427;51.580;4.656;2022-09-09T03:49:59;100610.13;;;12.72;100.00
69306;BME280;56427;51.580;4.656;2022-09-09T03:52:25;100602.44;;;12.70;100.00
69306;BME280;56427;51.580;4.656;2022-09-09T03:54:51;100606.22;;;12.76;100.00
69306;BME280;56427;51.580;4.656;2022-09-09T03:57:18;100606.22;;;12.76;100.00
69306;BME280;56427;51.580;4.656;2022-09-09T03:59:43;100610.50;;;12.77;100.00
69306;BME280;56427;51.580;4.656;2022-09-09T04:02:09;100609.50;;;12.78;100.00
69306;BME280;56427;51.580;4.656;2022-09-09T04:04:35;100610.19;;;12.80;100.00
69306;BME280;56427;51.580;4.656;2022-09-09T04:07:00;100606.47;;;12.82;100.00
69306;BME280;56427;51.580;4.656;2022-09-09T04:09:25;100608.63;;;12.87;100.00
69306;BME280;56427;51.580;4.656;2022-09-09T04:11:51;100607.38;;;12.91;100.00
69306;BME280;56427;51.580;4.656;2022-09-09T04:14:17;100607.47;;;12.99;100.00
69306;BME280;56427;51.580;4.656;2022-09-09T04:16:43;100610.06;;;12.99;100.00
69306;BME280;56427;51.580;4.656;2022-09-09T04:19:10;100604.22;;;13.05;100.00
69306;BME280;56427;51.580;4.656;2022-09-09T04:21:37;100605.81;;;13.16;100.00
69306;BME280;56427;51.580;4.656;2022-09-09T04:24:05;100600.59;;;13.16;100.00
69306;BME280;56427;51.580;4.656;2022-09-09T04:26:30;100591.78;;;13.17;100.00
69306;BME280;56427;51.580;4.656;2022-09-09T04:28:55;100590.31;;;13.15;100.00
69306;BME280;56427;51.580;4.656;2022-09-09T04:31:22;100588.16;;;13.10;100.00
69306;BME280;56427;51.580;4.656;2022-09-09T04:33:49;100589.34;;;13.16;100.00
69306;BME280;56427;51.580;4.656;2022-09-09T04:36:14;100584.75;;;13.10;100.00
69306;BME280;56427;51.580;4.656;2022-09-09T04:38:39;100586.34;;;13.11;100.00
69306;BME280;56427;51.580;4.656;2022-09-09T04:41:05;100576.94;;;13.10;100.00
69306;BME280;56427;51.580;4.656;2022-09-09T04:43:32;100580.94;;;13.04;100.00
69306;BME280;56427;51.580;4.656;2022-09-09T04:45:57;100574.75;;;13.05;100.00
69306;BME280;56427;51.580;4.656;2022-09-09T04:48:24;100576.94;;;13.10;100.00
69306;BME280;56427;51.580;4.656;2022-09-09T04:51:01;100581.47;;;13.07;100.00
69306;BME280;56427;51.580;4.656;2022-09-09T04:53:27;100579.09;;;13.14;100.00
69306;BME280;56427;51.580;4.656;2022-09-09T04:56:01;100578.94;;;13.16;100.00
69306;BME280;56427;51.580;4.656;2022-09-09T04:58:26;100576.34;;;13.16;100.00
69306;BME280;56427;51.580;4.656;2022-09-09T05:00:52;100574.53;;;13.16;100.00
69306;BME280;56427;51.580;4.656;2022-09-09T05:03:17;100574.03;;;13.13;100.00
69306;BME280;56427;51.580;4.656;2022-09-09T05:05:42;100558.38;;;13.13;100.00
69306;BME280;56427;51.580;4.656;2022-09-09T05:08:08;100567.31;;;13.10;100.00
69306;BME280;56427;51.580;4.656;2022-09-09T05:10:36;100569.91;;;13.10;100.00
69306;BME280;56427;51.580;4.656;2022-09-09T05:13:02;100569.09;;;13.10;100.00
69306;BME280;56427;51.580;4.656;2022-09-09T05:15:29;100576.47;;;13.14;100.00
69306;BME280;56427;51.580;4.656;2022-09-09T05:17:58;100571.28;;;13.14;100.00
69306;BME280;56427;51.580;4.656;2022-09-09T05:20:25;100576.69;;;13.21;100.00
69306;BME280;56427;51.580;4.656;2022-09-09T05:22:54;100581.53;;;13.16;100.00
69306;BME280;56427;51.580;4.656;2022-09-09T05:25:20;100572.59;;;13.18;100.00
69306;BME280;56427;51.580;4.656;2022-09-09T05:27:45;100572.00;;;13.24;100.00
69306;BME280;56427;51.580;4.656;2022-09-09T05:30:10;100573.25;;;13.20;100.00
69306;BME280;56427;51.580;4.656;2022-09-09T05:32:36;100568.41;;;13.25;100.00
69306;BME280;56427;51.580;4.656;2022-09-09T05:35:01;100571.84;;;13.26;100.00
69306;BME280;56427;51.580;4.656;2022-09-09T05:37:27;100566.34;;;13.29;100.00
69306;BME280;56427;51.580;4.656;2022-09-09T05:39:52;100573.00;;;13.32;100.00
69306;BME280;56427;51.580;4.656;2022-09-09T05:42:18;100570.41;;;13.32;100.00
69306;BME280;56427;51.580;4.656;2022-09-09T05:44:43;100575.50;;;13.33;100.00
69306;BME280;56427;51.580;4.656;2022-09-09T05:47:10;100571.63;;;13.37;100.00
69306;BME280;56427;51.580;4.656;2022-09-09T05:49:35;100572.00;;;13.42;100.00
69306;BME280;56427;51.580;4.656;2022-09-09T05:52:01;100571.69;;;13.46;100.00
69306;BME280;56427;51.580;4.656;2022-09-09T05:54:26;100555.78;;;13.57;100.00
69306;BME280;56427;51.580;4.656;2022-09-09T05:56:51;100571.00;;;13.70;100.00
69306;BME280;56427;51.580;4.656;2022-09-09T05:59:18;100558.50;;;13.73;100.00
69306;BME280;56427;51.580;4.656;2022-09-09T06:01:44;100559.03;;;13.85;100.00
69306;BME280;56427;51.580;4.656;2022-09-09T06:04:10;100562.34;;;13.95;100.00
69306;BME280;56427;51.580;4.656;2022-09-09T06:06:36;100561.53;;;13.95;100.00
69306;BME280;56427;51.580;4.656;2022-09-09T06:09:05;100560.56;;;14.04;100.00
69306;BME280;56427;51.580;4.656;2022-09-09T06:11:37;100560.28;;;14.15;100.00
69306;BME280;56427;51.580;4.656;2022-09-09T06:14:03;100560.44;;;14.14;100.00
69306;BME280;56427;51.580;4.656;2022-09-09T06:16:30;100565.06;;;14.28;100.00
69306;BME280;56427;51.580;4.656;2022-09-09T06:18:57;100561.78;;;14.85;100.00
69306;BME280;56427;51.580;4.656;2022-09-09T06:21:25;100556.00;;;14.57;100.00
69306;BME280;56427;51.580;4.656;2022-09-09T06:23:51;100551.97;;;14.63;100.00
69306;BME280;56427;51.580;4.656;2022-09-09T06:26:18;100546.59;;;14.81;100.00
69306;BME280;56427;51.580;4.656;2022-09-09T06:28:46;100546.13;;;14.77;100.00
69306;BME280;56427;51.580;4.656;2022-09-09T06:31:14;100549.38;;;15.04;100.00
69306;BME280;56427;51.580;4.656;2022-09-09T06:33:41;100545.59;;;15.06;100.00
69306;BME280;56427;51.580;4.656;2022-09-09T06:36:21;100533.38;;;15.07;100.00
69306;BME280;56427;51.580;4.656;2022-09-09T06:38:47;100541.94;;;15.57;100.00
69306;BME280;56427;51.580;4.656;2022-09-09T06:41:14;100528.88;;;15.49;100.00
69306;BME280;56427;51.580;4.656;2022-09-09T06:43:40;100532.50;;;15.31;100.00
69306;BME280;56427;51.580;4.656;2022-09-09T06:46:13;100535.19;;;15.87;100.00
69306;BME280;56427;51.580;4.656;2022-09-09T06:48:40;100542.44;;;15.52;100.00
69306;BME280;56427;51.580;4.656;2022-09-09T06:51:09;100543.88;;;15.79;100.00
69306;BME280;56427;51.580;4.656;2022-09-09T06:53:37;100546.63;;;16.26;100.00
69306;BME280;56427;51.580;4.656;2022-09-09T06:56:18;100546.28;;;16.29;100.00
69306;BME280;56427;51.580;4.656;2022-09-09T06:58:44;100556.31;;;15.69;100.00
69306;BME280;56427;51.580;4.656;2022-09-09T07:01:17;100547.69;;;15.36;100.00
69306;BME280;56427;51.580;4.656;2022-09-09T07:03:49;100533.84;;;15.19;100.00
69306;BME280;56427;51.580;4.656;2022-09-09T07:06:20;100547.09;;;15.09;100.00
69306;BME280;56427;51.580;4.656;2022-09-09T07:08:56;100547.41;;;15.06;100.00
69306;BME280;56427;51.580;4.656;2022-09-09T07:11:24;100548.91;;;15.00;100.00
69306;BME280;56427;51.580;4.656;2022-09-09T07:13:51;100550.19;;;14.80;100.00
69306;BME280;56427;51.580;4.656;2022-09-09T07:16:18;100543.00;;;14.82;100.00
69306;BME280;56427;51.580;4.656;2022-09-09T07:18:44;100547.72;;;14.78;100.00
69306;BME280;56427;51.580;4.656;2022-09-09T07:21:13;100548.22;;;14.82;100.00
69306;BME280;56427;51.580;4.656;2022-09-09T07:23:39;100545.28;;;14.77;100.00
69306;BME280;56427;51.580;4.656;2022-09-09T07:26:13;100553.28;;;14.83;100.00
69306;BME280;56427;51.580;4.656;2022-09-09T07:28:39;100561.28;;;14.82;100.00
69306;BME280;56427;51.580;4.656;2022-09-09T07:31:08;100551.66;;;14.90;100.00
69306;BME280;56427;51.580;4.656;2022-09-09T07:33:38;100547.91;;;14.93;100.00
69306;BME280;56427;51.580;4.656;2022-09-09T07:36:13;100557.88;;;14.98;100.00
69306;BME280;56427;51.580;4.656;2022-09-09T07:38:40;100552.00;;;14.96;100.00
69306;BME280;56427;51.580;4.656;2022-09-09T07:41:11;100548.91;;;15.00;100.00
69306;BME280;56427;51.580;4.656;2022-09-09T07:43:42;100552.31;;;15.09;100.00
69306;BME280;56427;51.580;4.656;2022-09-09T07:46:10;100555.41;;;15.13;100.00
69306;BME280;56427;51.580;4.656;2022-09-09T07:48:37;100546.59;;;15.14;100.00
69306;BME280;56427;51.580;4.656;2022-09-09T07:51:14;100542.31;;;15.37;100.00
69306;BME280;56427;51.580;4.656;2022-09-09T07:53:42;100543.97;;;15.38;100.00
69306;BME280;56427;51.580;4.656;2022-09-09T07:56:15;100545.84;;;15.69;100.00
69306;BME280;56427;51.580;4.656;2022-09-09T07:58:47;100545.03;;;15.77;100.00
69306;BME280;56427;51.580;4.656;2022-09-09T08:01:24;100536.84;;;15.80;100.00
69306;BME280;56427;51.580;4.656;2022-09-09T08:03:55;100536.22;;;15.61;100.00
69306;BME280;56427;51.580;4.656;2022-09-09T08:06:21;100547.19;;;15.57;100.00
69306;BME280;56427;51.580;4.656;2022-09-09T08:08:50;100545.06;;;15.52;100.00
69306;BME280;56427;51.580;4.656;2022-09-09T08:11:16;100540.00;;;15.42;100.00
69306;BME280;56427;51.580;4.656;2022-09-09T08:13:43;100542.47;;;15.44;100.00
69306;BME280;56427;51.580;4.656;2022-09-09T08:16:17;100544.09;;;15.45;100.00
69306;BME280;56427;51.580;4.656;2022-09-09T08:18:43;100540.34;;;15.39;100.00
69306;BME280;56427;51.580;4.656;2022-09-09T08:21:12;100544.91;;;15.45;100.00
69306;BME280;56427;51.580;4.656;2022-09-09T08:23:41;100551.25;;;15.68;100.00
69306;BME280;56427;51.580;4.656;2022-09-09T08:26:15;100548.09;;;15.72;100.00
69306;BME280;56427;51.580;4.656;2022-09-09T08:28:41;100555.81;;;15.65;100.00
69306;BME280;56427;51.580;4.656;2022-09-09T08:31:13;100549.94;;;15.63;100.00
69306;BME280;56427;51.580;4.656;2022-09-09T08:33:40;100559.56;;;15.88;100.00
69306;BME280;56427;51.580;4.656;2022-09-09T08:36:08;100558.09;;;15.77;100.00
69306;BME280;56427;51.580;4.656;2022-09-09T08:38:34;100557.94;;;15.78;100.00
69306;BME280;56427;51.580;4.656;2022-09-09T08:41:31;100559.06;;;15.92;100.00
69306;BME280;56427;51.580;4.656;2022-09-09T08:47:17;100569.22;;;15.71;100.00
69306;BME280;56427;51.580;4.656;2022-09-09T08:52:29;100565.97;;;15.60;100.00
69306;BME280;56427;51.580;4.656;2022-09-09T08:57:49;100558.44;;;15.65;100.00
69306;BME280;56427;51.580;4.656;2022-09-09T09:00:17;100577.25;;;15.61;100.00
69306;BME280;56427;51.580;4.656;2022-09-09T09:03:02;100571.88;;;15.62;100.00
69306;BME280;56427;51.580;4.656;2022-09-09T09:05:37;100572.50;;;15.64;100.00
69306;BME280;56427;51.580;4.656;2022-09-09T09:08:28;100577.25;;;15.61;100.00
69306;BME280;56427;51.580;4.656;2022-09-09T09:10:57;100579.34;;;15.65;100.00
69306;BME280;56427;51.580;4.656;2022-09-09T09:16:17;100586.22;;;15.75;100.00
69306;BME280;56427;51.580;4.656;2022-09-09T09:18:44;100583.47;;;15.76;100.00
69306;BME280;56427;51.580;4.656;2022-09-09T09:21:20;100586.97;;;16.00;100.00
69306;BME280;56427;51.580;4.656;2022-09-09T09:23:55;100585.09;;;15.77;100.00
69306;BME280;56427;51.580;4.656;2022-09-09T09:26:24;100584.56;;;15.82;100.00
69306;BME280;56427;51.580;4.656;2022-09-09T09:28:54;100593.09;;;15.84;100.00
69306;BME280;56427;51.580;4.656;2022-09-09T09:31:21;100584.06;;;15.87;100.00
69306;BME280;56427;51.580;4.656;2022-09-09T09:33:53;100588.34;;;15.88;100.00
69306;BME280;56427;51.580;4.656;2022-09-09T09:36:24;100573.88;;;16.00;100.00
69306;BME280;56427;51.580;4.656;2022-09-09T09:38:57;100587.66;;;15.94;100.00
69306;BME280;56427;51.580;4.656;2022-09-09T09:41:49;100575.31;;;16.11;100.00
69306;BME280;56427;51.580;4.656;2022-09-09T09:44:30;100575.34;;;16.03;100.00
69306;BME280;56427;51.580;4.656;2022-09-09T09:47:12;100576.38;;;15.93;100.00
69306;BME280;56427;51.580;4.656;2022-09-09T09:49:38;100576.16;;;16.03;100.00
69306;BME280;56427;51.580;4.656;2022-09-09T09:52:05;100574.94;;;16.22;100.00
69306;BME280;56427;51.580;4.656;2022-09-09T09:54:34;100579.06;;;16.16;100.00
69306;BME280;56427;51.580;4.656;2022-09-09T09:57:09;100573.00;;;16.16;100.00
69306;BME280;56427;51.580;4.656;2022-09-09T09:59:36;100569.28;;;16.10;100.00
69306;BME280;56427;51.580;4.656;2022-09-09T10:02:18;100569.16;;;16.04;100.00
69306;BME280;56427;51.580;4.656;2022-09-09T10:04:44;100568.06;;;15.81;100.00
69306;BME280;56427;51.580;4.656;2022-09-09T10:07:18;100566.75;;;15.86;100.00
69306;BME280;56427;51.580;4.656;2022-09-09T10:09:43;100567.97;;;16.06;100.00
69306;BME280;56427;51.580;4.656;2022-09-09T10:12:28;100568.63;;;16.08;100.00
69306;BME280;56427;51.580;4.656;2022-09-09T10:20:59;100581.00;;;15.58;100.00
69306;BME280;56427;51.580;4.656;2022-09-09T10:29:28;100589.34;;;15.62;100.00
69306;BME280;56427;51.580;4.656;2022-09-09T10:34:55;100599.34;;;15.42;100.00
69306;BME280;56427;51.580;4.656;2022-09-09T10:37:46;100601.16;;;15.33;100.00
69306;BME280;56427;51.580;4.656;2022-09-09T10:40:42;100596.75;;;15.25;100.00
69306;BME280;56427;51.580;4.656;2022-09-09T10:46:04;100599.69;;;15.31;100.00
69306;BME280;56427;51.580;4.656;2022-09-09T10:48:36;100596.91;;;15.32;100.00
69306;BME280;56427;51.580;4.656;2022-09-09T10:56:22;100594.78;;;15.36;100.00
69306;BME280;56427;51.580;4.656;2022-09-09T10:58:55;100603.94;;;15.32;100.00
69306;BME280;56427;51.580;4.656;2022-09-09T11:01:24;100597.06;;;15.39;100.00
69306;BME280;56427;51.580;4.656;2022-09-09T11:03:55;100592.81;;;15.46;100.00
69306;BME280;56427;51.580;4.656;2022-09-09T11:06:28;100583.78;;;15.65;100.00
69306;BME280;56427;51.580;4.656;2022-09-09T11:08:55;100593.75;;;15.86;100.00
69306;BME280;56427;51.580;4.656;2022-09-09T11:11:39;100582.25;;;16.04;100.00
69306;BME280;56427;51.580;4.656;2022-09-09T11:14:15;100583.75;;;16.29;100.00
69306;BME280;56427;51.580;4.656;2022-09-09T11:16:56;100583.88;;;16.36;100.00
69306;BME280;56427;51.580;4.656;2022-09-09T11:19:36;100573.88;;;16.63;100.00
69306;BME280;56427;51.580;4.656;2022-09-09T11:25:04;100582.72;;;16.70;100.00
69306;BME280;56427;51.580;4.656;2022-09-09T11:27:50;100584.88;;;16.66;100.00
69306;BME280;56427;51.580;4.656;2022-09-09T11:30:22;100592.59;;;16.28;100.00
69306;BME280;56427;51.580;4.656;2022-09-09T11:33:27;100581.88;;;16.07;100.00
69306;BME280;56427;51.580;4.656;2022-09-09T11:36:17;100589.25;;;16.03;100.00
69306;BME280;56427;51.580;4.656;2022-09-09T11:39:02;100591.78;;;16.28;100.00
69306;BME280;56427;51.580;4.656;2022-09-09T11:41:35;100590.75;;;16.37;100.00
69306;BME280;56427;51.580;4.656;2022-09-09T11:44:16;100589.94;;;16.36;100.00
69306;BME280;56427;51.580;4.656;2022-09-09T11:46:42;100593.38;;;16.37;100.00
69306;BME280;56427;51.580;4.656;2022-09-09T11:49:28;100593.53;;;16.35;100.00
69306;BME280;56427;51.580;4.656;2022-09-09T11:51:54;100597.19;;;16.58;100.00
69306;BME280;56427;51.580;4.656;2022-09-09T11:54:31;100596.31;;;16.65;100.00
69306;BME280;56427;51.580;4.656;2022-09-09T11:56:57;100601.84;;;16.70;100.00
69306;BME280;56427;51.580;4.656;2022-09-09T11:59:32;100597.16;;;16.89;100.00
69306;BME280;56427;51.580;4.656;2022-09-09T12:02:00;100598.34;;;17.09;100.00
69306;BME280;56427;51.580;4.656;2022-09-09T12:04:37;100594.13;;;17.00;100.00
69306;BME280;56427;51.580;4.656;2022-09-09T12:07:35;100586.97;;;17.17;100.00
69306;BME280;56427;51.580;4.656;2022-09-09T12:12:49;100589.03;;;17.22;100.00
69306;BME280;56427;51.580;4.656;2022-09-09T12:15:27;100590.63;;;17.31;100.00
69306;BME280;56427;51.580;4.656;2022-09-09T12:17:56;100599.31;;;17.46;100.00
69306;BME280;56427;51.580;4.656;2022-09-09T12:20:36;100588.91;;;17.53;100.00
69306;BME280;56427;51.580;4.656;2022-09-09T12:23:38;100592.63;;;17.44;100.00
69306;BME280;56427;51.580;4.656;2022-09-09T12:26:28;100593.78;;;17.41;100.00
69306;BME280;56427;51.580;4.656;2022-09-09T12:34:46;100590.47;;;17.62;100.00
69306;BME280;56427;51.580;4.656;2022-09-09T12:37:17;100598.69;;;17.59;100.00
69306;BME280;56427;51.580;4.656;2022-09-09T12:39:49;100586.72;;;17.95;100.00
69306;BME280;56427;51.580;4.656;2022-09-09T12:42:18;100587.41;;;18.18;100.00
69306;BME280;56427;51.580;4.656;2022-09-09T12:44:55;100592.00;;;18.31;100.00
69306;BME280;56427;51.580;4.656;2022-09-09T12:50:00;100597.06;;;18.33;100.00
69306;BME280;56427;51.580;4.656;2022-09-09T12:52:31;100581.59;;;18.23;100.00
69306;BME280;56427;51.580;4.656;2022-09-09T12:55:00;100581.59;;;18.23;100.00
69306;BME280;56427;51.580;4.656;2022-09-09T12:57:33;100583.75;;;18.34;100.00
69306;BME280;56427;51.580;4.656;2022-09-09T13:00:12;100584.97;;;18.02;100.00
69306;BME280;56427;51.580;4.656;2022-09-09T13:02:47;100594.22;;;17.98;100.00
69306;BME280;56427;51.580;4.656;2022-09-09T13:05:22;100595.19;;;17.82;100.00
69306;BME280;56427;51.580;4.656;2022-09-09T13:07:48;100595.50;;;17.87;100.00
69306;BME280;56427;51.580;4.656;2022-09-09T13:10:18;100595.56;;;17.94;100.00
69306;BME280;56427;51.580;4.656;2022-09-09T13:12:46;100592.69;;;18.03;100.00
69306;BME280;56427;51.580;4.656;2022-09-09T13:15:19;100595.44;;;18.32;100.00
69306;BME280;56427;51.580;4.656;2022-09-09T13:17:50;100591.94;;;18.25;100.00
69306;BME280;56427;51.580;4.656;2022-09-09T13:20:17;100592.19;;;18.30;100.00
69306;BME280;56427;51.580;4.656;2022-09-09T13:22:43;100595.72;;;18.22;100.00
69306;BME280;56427;51.580;4.656;2022-09-09T13:27:37;100600.00;;;18.60;100.00
69306;BME280;56427;51.580;4.656;2022-09-09T13:33:42;100588.41;;;18.32;100.00
69306;BME280;56427;51.580;4.656;2022-09-09T13:35:52;100593.19;;;18.29;100.00
69306;BME280;56427;51.580;4.656;2022-09-09T13:38:19;100593.94;;;18.23;100.00
69306;BME280;56427;51.580;4.656;2022-09-09T13:40:58;100598.81;;;18.26;100.00
69306;BME280;56427;51.580;4.656;2022-09-09T13:43:26;100605.91;;;17.95;100.00
69306;BME280;56427;51.580;4.656;2022-09-09T13:46:04;100613.13;;;17.63;100.00
69306;BME280;56427;51.580;4.656;2022-09-09T13:48:31;100613.19;;;17.55;100.00
69306;BME280;56427;51.580;4.656;2022-09-09T13:51:03;100614.09;;;17.62;100.00
69306;BME280;56427;51.580;4.656;2022-09-09T13:53:32;100611.53;;;17.54;100.00
69306;BME280;56427;51.580;4.656;2022-09-09T13:55:58;100616.16;;;17.52;100.00
69306;BME280;56427;51.580;4.656;2022-09-09T13:58:24;100616.81;;;17.69;100.00
69306;BME280;56427;51.580;4.656;2022-09-09T14:00:51;100618.44;;;17.55;100.00
69306;BME280;56427;51.580;4.656;2022-09-09T14:03:18;100620.06;;;17.56;100.00
69306;BME280;56427;51.580;4.656;2022-09-09T14:05:44;100619.25;;;17.56;100.00
69306;BME280;56427;51.580;4.656;2022-09-09T14:08:16;100618.53;;;17.77;100.00
69306;BME280;56427;51.580;4.656;2022-09-09T14:10:45;100622.41;;;17.51;100.00
69306;BME280;56427;51.580;4.656;2022-09-09T14:13:11;100629.50;;;17.27;100.00
69306;BME280;56427;51.580;4.656;2022-09-09T14:15:37;100624.31;;;17.19;100.00
69306;BME280;56427;51.580;4.656;2022-09-09T14:18:02;100639.50;;;17.09;100.00
69306;BME280;56427;51.580;4.656;2022-09-09T14:20:28;100622.47;;;17.05;100.00
69306;BME280;56427;51.580;4.656;2022-09-09T14:22:53;100633.09;;;17.26;100.00
69306;BME280;56427;51.580;4.656;2022-09-09T14:25:18;100632.66;;;17.23;100.00
69306;BME280;56427;51.580;4.656;2022-09-09T14:27:44;100634.28;;;17.24;100.00